createdAt,value
2018-12-12T00:01:02.547Z,5.13
2018-12-12T00:03:29.900Z,6.60
2018-12-12T00:05:57.059Z,6.73
2018-12-12T00:08:24.099Z,6.33
2018-12-12T00:10:51.162Z,7.20
2018-12-12T00:13:18.263Z,6.37
2018-12-12T00:15:45.409Z,5.60
2018-12-12T00:18:13.081Z,7.57
2018-12-12T00:20:40.258Z,6.27
2018-12-12T00:23:07.302Z,5.57
2018-12-12T00:25:34.322Z,5.43
2018-12-12T00:28:01.351Z,4.90
2018-12-12T00:30:28.518Z,5.07
2018-12-12T00:32:55.651Z,4.50
2018-12-12T00:35:22.715Z,6.37
2018-12-12T00:37:49.706Z,4.60
2018-12-12T00:40:16.812Z,6.67
2018-12-12T00:42:43.966Z,6.83
2018-12-12T00:45:11.790Z,5.57
2018-12-12T00:47:39.371Z,4.20
2018-12-12T00:50:06.554Z,5.57
2018-12-12T00:52:33.584Z,9.00
2018-12-12T00:57:37.126Z,4.10
2018-12-12T01:00:05.583Z,5.93
2018-12-12T01:02:33.019Z,5.70
2018-12-12T01:05:00.202Z,3.43
2018-12-12T01:07:29.012Z,6.40
2018-12-12T01:09:56.597Z,4.70
2018-12-12T01:12:24.818Z,6.80
2018-12-12T01:14:53.276Z,6.00
2018-12-12T01:17:22.108Z,6.97
2018-12-12T01:19:49.332Z,7.10
2018-12-12T01:22:17.301Z,4.50
2018-12-12T01:24:44.364Z,6.13
2018-12-12T01:27:21.002Z,5.63
2018-12-12T01:29:57.121Z,4.63
2018-12-12T01:32:24.764Z,4.33
2018-12-12T01:34:57.545Z,4.40
2018-12-12T01:39:56.833Z,4.93
2018-12-12T01:42:23.940Z,4.37
2018-12-12T01:47:23.857Z,7.17
2018-12-12T01:49:50.852Z,6.77
2018-12-12T01:52:29.897Z,6.23
2018-12-12T01:55:00.512Z,6.00
2018-12-12T01:57:27.511Z,9.10
2018-12-12T01:59:54.800Z,6.67
2018-12-12T02:02:21.908Z,6.47
2018-12-12T02:04:59.748Z,5.97
2018-12-12T02:07:31.540Z,6.37
2018-12-12T02:09:58.518Z,5.70
2018-12-12T02:12:26.686Z,4.30
2018-12-12T02:14:53.859Z,5.30
2018-12-12T02:17:29.099Z,5.43
2018-12-12T02:19:56.886Z,5.57
2018-12-12T02:22:23.927Z,5.40
2018-12-12T02:24:51.515Z,5.47
2018-12-12T02:27:18.522Z,3.33
2018-12-12T02:29:45.523Z,4.63
2018-12-12T02:32:12.519Z,5.33
2018-12-12T02:34:39.557Z,6.23
2018-12-12T02:37:06.632Z,6.70
2018-12-12T02:39:33.642Z,7.90
2018-12-12T02:42:00.602Z,5.47
2018-12-12T02:44:27.628Z,6.80
2018-12-12T02:46:54.614Z,7.83
2018-12-12T02:49:23.303Z,5.73
2018-12-12T02:51:50.309Z,7.00
2018-12-12T02:54:17.321Z,8.17
2018-12-12T02:56:44.438Z,8.20
2018-12-12T02:59:11.439Z,6.63
2018-12-12T03:01:38.441Z,6.77
2018-12-12T03:04:05.534Z,6.17
2018-12-12T03:06:32.555Z,6.00
2018-12-12T03:09:08.319Z,5.57
2018-12-12T03:11:35.465Z,7.73
2018-12-12T03:14:02.487Z,5.87
2018-12-12T03:16:29.705Z,6.30
2018-12-12T03:18:56.721Z,6.47
2018-12-12T03:21:23.793Z,6.70
2018-12-12T03:23:50.887Z,6.47
2018-12-12T03:26:18.069Z,7.03
2018-12-12T03:28:45.010Z,5.87
2018-12-12T03:31:12.035Z,5.40
2018-12-12T03:33:39.010Z,5.53
2018-12-12T03:36:05.978Z,5.77
2018-12-12T03:38:32.972Z,5.10
2018-12-12T03:40:59.976Z,5.00
2018-12-12T03:43:26.876Z,7.00
2018-12-12T03:45:54.984Z,4.03
2018-12-12T03:48:21.964Z,7.27
2018-12-12T03:50:49.538Z,7.60
2018-12-12T03:53:16.565Z,9.40
2018-12-12T03:55:43.585Z,6.73
2018-12-12T03:58:10.530Z,6.77
2018-12-12T04:00:37.535Z,6.70
2018-12-12T04:03:04.657Z,6.50
2018-12-12T04:05:31.583Z,7.30
2018-12-12T04:07:58.632Z,9.73
2018-12-12T04:10:25.637Z,6.37
2018-12-12T04:12:52.612Z,6.77
2018-12-12T04:15:19.629Z,8.10
2018-12-12T04:17:46.753Z,7.90
2018-12-12T04:20:14.395Z,8.30
2018-12-12T04:22:41.385Z,7.73
2018-12-12T04:25:08.478Z,7.83
2018-12-12T04:27:35.989Z,8.83
2018-12-12T04:30:03.555Z,9.90
2018-12-12T04:32:30.697Z,9.10
2018-12-12T04:34:57.695Z,9.17
2018-12-12T04:37:24.626Z,10.73
2018-12-12T04:39:51.804Z,11.40
2018-12-12T04:42:18.945Z,11.07
2018-12-12T04:44:46.806Z,13.27
2018-12-12T04:47:15.874Z,10.97
2018-12-12T04:49:42.892Z,11.80
2018-12-12T04:52:10.658Z,14.60
2018-12-12T04:54:37.609Z,13.73
2018-12-12T04:57:04.571Z,12.77
2018-12-12T04:59:31.550Z,12.33
2018-12-12T05:01:58.544Z,14.70
2018-12-12T05:04:25.507Z,12.57
2018-12-12T05:06:52.592Z,14.90
2018-12-12T05:09:19.585Z,14.23
2018-12-12T05:11:46.527Z,13.63
2018-12-12T05:14:13.505Z,16.07
2018-12-12T05:16:40.474Z,17.87
2018-12-12T05:19:07.533Z,15.47
2018-12-12T05:21:34.532Z,18.10
2018-12-12T05:24:01.657Z,18.00
2018-12-12T05:26:28.633Z,17.73
2018-12-12T05:28:55.603Z,17.03
2018-12-12T05:31:22.529Z,18.07
2018-12-12T05:33:49.614Z,17.70
2018-12-12T05:36:16.646Z,18.00
2018-12-12T05:38:43.714Z,17.43
2018-12-12T05:41:12.064Z,19.50
2018-12-12T05:43:39.085Z,16.57
2018-12-12T05:46:06.007Z,16.03
2018-12-12T05:48:32.949Z,15.03
2018-12-12T05:50:59.873Z,18.07
2018-12-12T05:53:26.952Z,18.80
2018-12-12T05:55:53.895Z,18.10
2018-12-12T05:58:20.823Z,18.40
2018-12-12T06:00:47.787Z,17.53
2018-12-12T06:03:14.739Z,19.80
2018-12-12T06:05:41.749Z,17.37
2018-12-12T06:08:08.719Z,18.97
2018-12-12T06:10:35.654Z,16.80
2018-12-12T06:13:02.609Z,17.17
2018-12-12T06:15:29.639Z,19.17
2018-12-12T06:17:56.628Z,15.90
2018-12-12T06:20:23.568Z,18.57
2018-12-12T06:22:50.659Z,20.73
2018-12-12T06:25:17.674Z,18.80
2018-12-12T06:27:44.603Z,17.73
2018-12-12T06:30:11.665Z,17.77
2018-12-12T06:32:38.601Z,19.37
2018-12-12T06:35:06.244Z,19.60
2018-12-12T06:37:33.358Z,20.50
2018-12-12T06:40:00.351Z,19.63
2018-12-12T06:42:27.385Z,16.23
2018-12-12T06:44:54.376Z,14.93
2018-12-12T06:47:21.379Z,16.70
2018-12-12T06:49:48.335Z,13.43
2018-12-12T06:52:15.341Z,13.83
2018-12-12T06:54:42.352Z,15.27
2018-12-12T06:57:09.366Z,15.23
2018-12-12T06:59:36.321Z,16.70
2018-12-12T07:02:03.291Z,15.13
2018-12-12T07:04:30.374Z,12.70
2018-12-12T07:06:57.453Z,15.03
2018-12-12T07:09:24.407Z,10.20
2018-12-12T07:11:51.421Z,16.00
2018-12-12T07:14:19.606Z,11.10
2018-12-12T07:16:46.608Z,13.90
2018-12-12T07:19:13.558Z,13.80
2018-12-12T07:21:41.203Z,13.57
2018-12-12T07:24:08.932Z,17.73
2018-12-12T07:26:36.056Z,13.37
2018-12-12T07:29:03.121Z,12.23
2018-12-12T07:31:30.241Z,13.50
2018-12-12T07:34:00.987Z,16.30
2018-12-12T07:36:24.315Z,10.03
2018-12-12T07:43:46.248Z,14.57
2018-12-12T07:46:13.335Z,11.63
2018-12-12T07:48:40.362Z,19.63
2018-12-12T07:51:07.594Z,12.10
2018-12-12T07:53:34.562Z,15.17
2018-12-12T07:56:01.692Z,15.03
2018-12-12T07:58:28.686Z,12.93
2018-12-12T08:00:55.758Z,15.87
2018-12-12T08:03:22.713Z,15.43
2018-12-12T08:05:49.782Z,11.47
2018-12-12T08:08:16.802Z,19.30
2018-12-12T08:10:44.356Z,13.70
2018-12-12T08:13:11.453Z,13.97
2018-12-12T08:15:44.295Z,10.93
2018-12-12T08:18:11.454Z,19.23
2018-12-12T08:20:38.417Z,13.17
2018-12-12T08:23:05.391Z,20.97
2018-12-12T08:25:32.485Z,16.63
2018-12-12T08:27:59.485Z,15.63
2018-12-12T08:30:26.461Z,13.80
2018-12-12T08:32:54.069Z,15.57
2018-12-12T08:35:24.161Z,13.70
2018-12-12T08:37:51.474Z,16.93
2018-12-12T08:40:19.079Z,14.37
2018-12-12T08:42:46.336Z,17.30
2018-12-12T08:45:13.642Z,15.90
2018-12-12T08:47:40.788Z,14.60
2018-12-12T08:50:07.986Z,12.60
2018-12-12T08:52:37.359Z,17.07
2018-12-12T08:55:04.573Z,14.20
2018-12-12T08:57:31.760Z,17.53
2018-12-12T08:59:58.745Z,16.70
2018-12-12T09:02:25.683Z,15.23
2018-12-12T09:04:52.603Z,12.93
2018-12-12T09:07:19.639Z,12.67
2018-12-12T09:09:46.615Z,15.27
2018-12-12T09:12:13.731Z,15.33
2018-12-12T09:14:40.794Z,15.60
2018-12-12T09:17:09.741Z,21.73
2018-12-12T09:19:35.450Z,20.17
2018-12-12T09:22:02.614Z,19.17
2018-12-12T09:24:30.095Z,16.67
2018-12-12T09:26:57.033Z,13.70
2018-12-12T09:29:24.204Z,13.73
2018-12-12T09:31:51.233Z,14.27
2018-12-12T09:34:18.218Z,14.00
2018-12-12T09:36:45.206Z,13.77
2018-12-12T09:39:12.218Z,13.40
2018-12-12T09:41:39.218Z,14.50
2018-12-12T09:44:06.212Z,13.03
2018-12-12T09:46:44.690Z,12.60
2018-12-12T09:49:11.878Z,20.37
2018-12-12T09:51:38.822Z,17.33
2018-12-12T09:54:05.963Z,14.67
2018-12-12T09:56:33.009Z,18.50
2018-12-12T09:59:00.143Z,14.43
2018-12-12T10:01:27.167Z,13.67
2018-12-12T10:03:54.282Z,14.97
2018-12-12T10:06:23.528Z,20.57
2018-12-12T10:08:50.580Z,15.30
2018-12-12T10:11:18.277Z,12.40
2018-12-12T10:13:45.328Z,13.50
2018-12-12T10:16:12.414Z,13.03
2018-12-12T10:18:40.604Z,16.67
2018-12-12T10:21:13.285Z,14.93
2018-12-12T10:23:40.470Z,13.00
2018-12-12T10:26:07.484Z,12.63
2018-12-12T10:28:34.425Z,11.43
2018-12-12T10:31:01.425Z,10.17
2018-12-12T10:33:28.494Z,9.63
2018-12-12T10:35:55.513Z,10.57
2018-12-12T10:38:23.404Z,9.13
2018-12-12T10:40:50.357Z,8.97
2018-12-12T10:43:17.360Z,10.20
2018-12-12T10:45:44.448Z,8.67
2018-12-12T10:48:11.492Z,8.03
2018-12-12T10:50:38.469Z,12.40
2018-12-12T10:53:07.400Z,13.70
2018-12-12T10:55:34.457Z,14.23
2018-12-12T10:58:01.439Z,8.80
2018-12-12T11:00:28.490Z,10.40
2018-12-12T11:03:01.269Z,8.47
2018-12-12T11:05:28.335Z,8.83
2018-12-12T11:07:55.375Z,10.63
2018-12-12T11:10:22.560Z,13.23
2018-12-12T11:12:49.600Z,10.03
2018-12-12T11:15:16.602Z,11.80
2018-12-12T11:17:43.541Z,11.60
2018-12-12T11:20:10.613Z,9.63
2018-12-12T11:22:37.568Z,9.70
2018-12-12T11:25:05.403Z,8.80
2018-12-12T11:27:33.079Z,8.60
2018-12-12T11:30:00.098Z,10.83
2018-12-12T11:32:27.139Z,10.23
2018-12-12T11:34:54.267Z,8.70
2018-12-12T11:37:21.392Z,10.93
2018-12-12T11:39:48.649Z,10.33
2018-12-12T11:42:17.345Z,13.77
2018-12-12T11:44:45.094Z,10.03
2018-12-12T11:47:37.227Z,24.60
2018-12-12T11:50:06.169Z,13.77
2018-12-12T11:52:33.385Z,14.53
2018-12-12T11:55:00.403Z,11.03
2018-12-12T11:57:27.518Z,12.10
2018-12-12T11:59:54.517Z,13.57
2018-12-12T12:02:22.911Z,10.63
2018-12-12T12:04:50.949Z,12.77
2018-12-12T12:07:18.858Z,11.73
2018-12-12T12:09:45.930Z,11.00
2018-12-12T12:12:16.486Z,15.03
2018-12-12T12:14:44.460Z,13.40
2018-12-12T12:17:11.466Z,14.93
2018-12-12T12:19:40.203Z,12.63
2018-12-12T12:22:07.211Z,12.10
2018-12-12T12:24:34.276Z,13.17
2018-12-12T12:27:01.923Z,13.93
2018-12-12T12:29:29.065Z,14.97
2018-12-12T12:31:58.320Z,13.80
2018-12-12T12:34:25.294Z,14.43
2018-12-12T12:36:52.306Z,13.43
2018-12-12T12:39:19.351Z,13.17
2018-12-12T12:41:46.495Z,15.27
2018-12-12T12:44:14.561Z,13.10
2018-12-12T12:46:41.702Z,14.63
2018-12-12T12:49:08.858Z,13.47
2018-12-12T12:51:39.206Z,18.37
2018-12-12T12:54:06.431Z,16.60
2018-12-12T12:56:33.532Z,12.07
2018-12-12T12:59:00.942Z,13.67
2018-12-12T13:01:29.268Z,13.40
2018-12-12T13:03:57.928Z,10.57
2018-12-12T13:06:29.082Z,16.10
2018-12-12T13:08:58.001Z,15.33
2018-12-12T13:11:25.857Z,11.87
2018-12-12T13:13:52.993Z,11.70
2018-12-12T13:16:20.229Z,15.77
2018-12-12T13:18:48.726Z,14.73
2018-12-12T13:21:16.563Z,14.83
2018-12-12T13:23:43.617Z,14.97
2018-12-12T13:26:10.574Z,11.63
2018-12-12T13:28:37.607Z,11.40
2018-12-12T13:31:05.397Z,11.40
2018-12-12T13:33:33.816Z,14.23
2018-12-12T13:36:01.418Z,13.23
2018-12-12T13:38:28.446Z,12.77
2018-12-12T13:40:55.397Z,15.00
2018-12-12T13:43:22.348Z,13.10
2018-12-12T13:45:49.333Z,13.77
2018-12-12T13:48:16.306Z,12.23
2018-12-12T13:50:43.348Z,12.13
2018-12-12T13:53:10.357Z,14.67
2018-12-12T13:55:37.537Z,14.43
2018-12-12T13:58:04.937Z,12.37
2018-12-12T14:00:31.989Z,13.57
2018-12-12T14:02:58.932Z,13.30
2018-12-12T14:05:25.958Z,13.83
2018-12-12T14:07:52.926Z,13.47
2018-12-12T14:10:20.081Z,18.20
2018-12-12T14:12:47.197Z,17.13
2018-12-12T14:15:14.150Z,13.53
2018-12-12T14:17:41.272Z,16.53
2018-12-12T14:20:08.357Z,14.67
2018-12-12T14:22:35.346Z,16.57
2018-12-12T14:25:04.584Z,18.03
2018-12-12T14:27:31.663Z,15.63
2018-12-12T14:29:58.681Z,15.03
2018-12-12T14:32:25.662Z,15.07
2018-12-12T14:34:52.647Z,14.83
2018-12-12T14:37:19.621Z,17.77
2018-12-12T14:39:46.636Z,17.70
2018-12-12T14:42:13.614Z,16.33
2018-12-12T14:44:40.713Z,16.23
2018-12-12T14:47:07.787Z,16.63
2018-12-12T14:49:34.689Z,15.93
2018-12-12T14:52:01.683Z,16.53
2018-12-12T14:54:28.641Z,15.83
2018-12-12T14:56:55.652Z,19.80
2018-12-12T14:59:22.717Z,17.03
2018-12-12T15:01:50.332Z,17.37
2018-12-12T15:04:17.941Z,19.20
2018-12-12T15:06:45.612Z,16.20
2018-12-12T15:09:12.661Z,18.37
2018-12-12T15:11:39.710Z,20.40
2018-12-12T15:14:06.839Z,17.23
2018-12-12T15:16:41.544Z,16.77
2018-12-12T15:19:08.569Z,17.43
2018-12-12T15:21:35.542Z,16.93
2018-12-12T15:24:02.504Z,17.67
2018-12-12T15:26:32.045Z,18.63
2018-12-12T15:28:59.827Z,22.67
2018-12-12T15:31:26.802Z,22.00
2018-12-12T15:33:54.189Z,20.33
2018-12-12T15:36:21.135Z,20.17
2018-12-12T15:38:48.245Z,19.50
2018-12-12T15:41:15.269Z,20.43
2018-12-12T15:43:42.299Z,21.90
2018-12-12T15:46:09.320Z,22.07
2018-12-12T15:48:36.935Z,18.57
2018-12-12T15:51:03.955Z,21.87
2018-12-12T15:53:31.206Z,23.43
2018-12-12T15:55:58.970Z,18.50
2018-12-12T15:58:25.917Z,22.50
2018-12-12T16:00:52.929Z,19.97
2018-12-12T16:03:19.975Z,20.07
2018-12-12T16:05:46.956Z,23.17
2018-12-12T16:08:14.093Z,22.53
2018-12-12T16:10:40.985Z,20.60
2018-12-12T16:13:07.911Z,19.17
2018-12-12T16:15:35.370Z,20.10
2018-12-12T16:18:02.279Z,20.47
2018-12-12T16:20:29.298Z,21.10
2018-12-12T16:22:56.543Z,22.33
2018-12-12T16:25:23.666Z,23.77
2018-12-12T16:27:52.320Z,22.10
2018-12-12T16:30:19.158Z,22.03
2018-12-12T16:32:46.436Z,22.73
2018-12-12T16:35:13.705Z,26.57
2018-12-12T16:37:41.856Z,21.53
2018-12-12T16:40:09.029Z,23.67
2018-12-12T16:43:00.463Z,25.97
2018-12-12T16:45:27.930Z,28.50
2018-12-12T16:47:55.038Z,25.67
2018-12-12T16:50:22.235Z,20.63
2018-12-12T16:52:49.400Z,21.23
2018-12-12T16:55:16.687Z,26.03
2018-12-12T16:57:43.875Z,33.67
2018-12-12T17:00:11.055Z,21.17
2018-12-12T17:02:38.345Z,23.33
2018-12-12T17:05:05.544Z,22.63
2018-12-12T17:07:32.821Z,26.13
2018-12-12T17:10:00.042Z,21.23
2018-12-12T17:12:27.198Z,19.57
2018-12-12T17:14:54.579Z,19.53
2018-12-12T17:17:21.831Z,24.27
2018-12-12T17:19:49.018Z,23.17
2018-12-12T17:22:17.706Z,25.03
2018-12-12T17:24:45.890Z,23.20
2018-12-12T17:27:27.081Z,30.70
2018-12-12T17:29:54.415Z,26.27
2018-12-12T17:32:27.004Z,45.30
2018-12-12T17:58:28.475Z,21.23
2018-12-12T18:00:55.637Z,25.80
2018-12-12T18:40:40.483Z,26.77
2018-12-12T18:43:10.670Z,109.30
2018-12-12T18:45:41.451Z,37.97
2018-12-12T18:49:52.088Z,87.13
2018-12-12T18:52:29.673Z,43.63
2018-12-12T18:55:35.701Z,47.23
2018-12-12T19:00:48.281Z,50.00
2018-12-12T19:03:23.126Z,116.33
2018-12-12T19:05:50.341Z,35.00
2018-12-12T19:08:17.607Z,49.63
2018-12-12T19:16:30.913Z,35.20
2018-12-12T19:18:58.252Z,29.23
2018-12-12T19:21:26.473Z,34.17
2018-12-12T19:23:53.968Z,24.20
2018-12-12T19:26:21.303Z,28.77
2018-12-12T19:28:48.562Z,24.43
2018-12-12T19:31:15.736Z,27.80
2018-12-12T19:33:42.985Z,26.87
2018-12-12T19:36:11.377Z,47.10
2018-12-12T19:38:38.699Z,33.87
2018-12-12T19:41:06.094Z,32.53
2018-12-12T19:43:33.300Z,34.87
2018-12-12T19:46:01.275Z,30.00
2018-12-12T19:48:28.690Z,28.33
2018-12-12T19:50:56.111Z,30.90
2018-12-12T19:53:23.506Z,29.67
2018-12-12T19:55:50.817Z,31.33
2018-12-12T19:58:18.226Z,26.97
2018-12-12T20:00:45.898Z,25.23
2018-12-12T20:03:14.228Z,41.50
2018-12-12T20:05:41.812Z,28.27
2018-12-12T20:08:14.665Z,27.07
2018-12-12T20:10:42.511Z,27.37
2018-12-12T20:13:11.486Z,37.20
2018-12-12T20:15:48.516Z,67.03
2018-12-12T20:18:17.938Z,69.50
2018-12-12T20:20:45.287Z,35.53
2018-12-12T20:23:12.574Z,29.13
2018-12-12T20:25:40.067Z,38.47
2018-12-12T20:28:07.306Z,38.30
2018-12-12T20:30:35.445Z,39.23
2018-12-12T20:33:03.262Z,34.33
2018-12-12T20:35:31.054Z,39.33
2018-12-12T20:37:58.285Z,70.50
2018-12-12T20:40:25.766Z,64.40
2018-12-12T20:42:53.349Z,30.13
2018-12-12T20:45:21.559Z,39.27
2018-12-12T20:47:55.285Z,41.00
2018-12-12T20:50:23.843Z,27.23
2018-12-12T20:52:55.576Z,30.97
2018-12-12T20:55:27.343Z,45.13
2018-12-12T20:57:57.153Z,30.00
2018-12-12T21:00:24.626Z,28.77
2018-12-12T21:02:55.577Z,30.90
2018-12-12T21:05:22.803Z,26.67
2018-12-12T21:07:56.096Z,33.00
2018-12-12T21:10:24.221Z,27.50
2018-12-12T21:12:51.393Z,25.23
2018-12-12T21:15:18.470Z,27.40
2018-12-12T21:17:47.644Z,42.37
2018-12-12T21:20:15.569Z,29.47
2018-12-12T21:22:42.664Z,28.73
2018-12-12T21:25:10.401Z,31.23
2018-12-12T21:27:37.522Z,27.87
2018-12-12T21:30:04.779Z,27.80
2018-12-12T21:32:34.781Z,53.03
2018-12-12T21:35:01.914Z,28.43
2018-12-12T21:37:29.042Z,29.03
2018-12-12T21:40:03.042Z,23.87
2018-12-12T21:42:31.396Z,21.77
2018-12-12T21:44:59.609Z,26.23
2018-12-12T21:47:26.669Z,22.50
2018-12-12T21:49:54.679Z,27.33
2018-12-12T21:52:21.672Z,23.43
2018-12-12T21:54:48.718Z,27.37
2018-12-12T21:57:49.935Z,63.37
2018-12-12T22:00:17.917Z,32.90
2018-12-12T22:02:45.182Z,28.30
2018-12-12T22:05:12.643Z,41.20
2018-12-12T22:07:41.929Z,34.03
2018-12-12T22:10:11.851Z,50.53
2018-12-12T22:12:39.802Z,48.07
2018-12-12T22:18:09.709Z,27.77
2018-12-12T22:20:42.800Z,46.37
2018-12-12T22:23:11.765Z,42.67
2018-12-12T22:25:39.700Z,27.33
2018-12-12T22:28:18.004Z,22.77
2018-12-12T22:31:17.112Z,20.13
2018-12-12T22:37:17.924Z,27.23
2018-12-12T22:40:06.018Z,28.63
2018-12-12T22:42:40.602Z,35.93
2018-12-12T22:45:10.204Z,32.67
2018-12-12T23:31:57.997Z,25.47
2018-12-12T23:34:28.272Z,23.93
2018-12-12T23:37:01.838Z,23.73
2018-12-12T23:39:33.279Z,23.60
2018-12-12T23:42:08.018Z,22.53
